sensor_id;sensor_type;location;lat;lon;timestamp;temperature;humidity
17948;DHT22;9099;47.958;11.366;2023-02-28T00:00:31;-2.50;99.90
17948;DHT22;9099;47.958;11.366;2023-02-28T00:02:59;-2.50;99.90
17948;DHT22;9099;47.958;11.366;2023-02-28T00:05:27;-2.50;99.90
17948;DHT22;9099;47.958;11.366;2023-02-28T00:07:54;-2.40;99.90
17948;DHT22;9099;47.958;11.366;2023-02-28T00:10:23;-2.40;99.90
17948;DHT22;9099;47.958;11.366;2023-02-28T00:12:53;-2.40;99.90
17948;DHT22;9099;47.958;11.366;2023-02-28T00:15:22;-2.40;99.90
17948;DHT22;9099;47.958;11.366;2023-02-28T00:17:50;-2.40;99.90
17948;DHT22;9099;47.958;11.366;2023-02-28T00:20:17;-2.40;99.90
17948;DHT22;9099;47.958;11.366;2023-02-28T00:22:46;-2.40;99.90
17948;DHT22;9099;47.958;11.366;2023-02-28T00:25:15;-2.40;99.90
17948;DHT22;9099;47.958;11.366;2023-02-28T00:27:43;-2.40;99.90
17948;DHT22;9099;47.958;11.366;2023-02-28T00:30:13;-2.40;99.90
17948;DHT22;9099;47.958;11.366;2023-02-28T00:32:41;-2.50;99.90
17948;DHT22;9099;47.958;11.366;2023-02-28T00:35:09;-2.50;99.90
17948;DHT22;9099;47.958;11.366;2023-02-28T00:37:37;-2.70;99.90
17948;DHT22;9099;47.958;11.366;2023-02-28T00:40:05;-2.70;99.90
17948;DHT22;9099;47.958;11.366;2023-02-28T00:42:32;-2.80;99.90
17948;DHT22;9099;47.958;11.366;2023-02-28T00:45:00;-2.80;99.90
17948;DHT22;9099;47.958;11.366;2023-02-28T00:47:28;-2.90;99.90
17948;DHT22;9099;47.958;11.366;2023-02-28T00:49:57;-2.90;99.90
17948;DHT22;9099;47.958;11.366;2023-02-28T00:52:23;-3.00;99.90
17948;DHT22;9099;47.958;11.366;2023-02-28T00:54:50;-3.00;99.90
17948;DHT22;9099;47.958;11.366;2023-02-28T00:57:17;-3.10;99.90
17948;DHT22;9099;47.958;11.366;2023-02-28T00:59:44;-3.10;99.90
17948;DHT22;9099;47.958;11.366;2023-02-28T01:02:11;-3.10;99.90
17948;DHT22;9099;47.958;11.366;2023-02-28T01:04:39;-3.20;99.90
17948;DHT22;9099;47.958;11.366;2023-02-28T01:07:06;-3.20;99.90
17948;DHT22;9099;47.958;11.366;2023-02-28T01:09:33;-3.30;99.90
17948;DHT22;9099;47.958;11.366;2023-02-28T01:12:00;-3.30;99.90
17948;DHT22;9099;47.958;11.366;2023-02-28T01:14:27;-3.30;99.90
17948;DHT22;9099;47.958;11.366;2023-02-28T01:16:53;-3.30;99.90
17948;DHT22;9099;47.958;11.366;2023-02-28T01:19:20;-3.30;99.90
17948;DHT22;9099;47.958;11.366;2023-02-28T01:21:48;-3.30;99.90
17948;DHT22;9099;47.958;11.366;2023-02-28T01:24:15;-3.40;99.90
17948;DHT22;9099;47.958;11.366;2023-02-28T01:26:42;-3.40;99.90
17948;DHT22;9099;47.958;11.366;2023-02-28T01:29:09;-3.40;99.90
17948;DHT22;9099;47.958;11.366;2023-02-28T01:31:36;-3.40;99.90
17948;DHT22;9099;47.958;11.366;2023-02-28T01:34:03;-3.50;99.90
17948;DHT22;9099;47.958;11.366;2023-02-28T01:36:30;-3.50;99.90
17948;DHT22;9099;47.958;11.366;2023-02-28T01:38:58;-3.50;99.90
17948;DHT22;9099;47.958;11.366;2023-02-28T01:41:27;-3.50;99.90
17948;DHT22;9099;47.958;11.366;2023-02-28T01:43:59;-3.50;99.90
17948;DHT22;9099;47.958;11.366;2023-02-28T01:46:29;-3.50;99.90
17948;DHT22;9099;47.958;11.366;2023-02-28T01:49:01;-3.50;99.90
17948;DHT22;9099;47.958;11.366;2023-02-28T01:51:33;-3.60;99.90
17948;DHT22;9099;47.958;11.366;2023-02-28T01:54:05;-3.60;99.90
17948;DHT22;9099;47.958;11.366;2023-02-28T01:56:42;-3.70;99.90
17948;DHT22;9099;47.958;11.366;2023-02-28T01:59:12;-3.70;99.90
17948;DHT22;9099;47.958;11.366;2023-02-28T02:01:40;-3.80;99.90
17948;DHT22;9099;47.958;11.366;2023-02-28T02:04:07;-3.80;99.90
17948;DHT22;9099;47.958;11.366;2023-02-28T02:06:37;-3.80;99.90
17948;DHT22;9099;47.958;11.366;2023-02-28T02:09:06;-3.80;99.90
17948;DHT22;9099;47.958;11.366;2023-02-28T02:11:34;-3.90;99.90
17948;DHT22;9099;47.958;11.366;2023-02-28T02:17:05;-3.80;99.90
17948;DHT22;9099;47.958;11.366;2023-02-28T02:22:53;-3.70;99.90
17948;DHT22;9099;47.958;11.366;2023-02-28T02:25:34;-3.70;99.90
17948;DHT22;9099;47.958;11.366;2023-02-28T02:28:36;-3.80;99.90
17948;DHT22;9099;47.958;11.366;2023-02-28T02:31:48;-3.80;99.90
17948;DHT22;9099;47.958;11.366;2023-02-28T02:34:42;-3.70;99.90
17948;DHT22;9099;47.958;11.366;2023-02-28T02:37:21;-3.80;99.90
17948;DHT22;9099;47.958;11.366;2023-02-28T02:39:53;-3.80;99.90
17948;DHT22;9099;47.958;11.366;2023-02-28T02:42:24;-3.80;99.90
17948;DHT22;9099;47.958;11.366;2023-02-28T02:44:59;-3.80;99.90
17948;DHT22;9099;47.958;11.366;2023-02-28T02:47:29;-3.80;99.90
17948;DHT22;9099;47.958;11.366;2023-02-28T02:50:02;-3.90;99.90
17948;DHT22;9099;47.958;11.366;2023-02-28T02:52:35;-3.90;99.90
17948;DHT22;9099;47.958;11.366;2023-02-28T02:55:04;-3.90;99.90
17948;DHT22;9099;47.958;11.366;2023-02-28T02:57:35;-4.00;99.90
17948;DHT22;9099;47.958;11.366;2023-02-28T03:00:04;-4.00;99.90
17948;DHT22;9099;47.958;11.366;2023-02-28T03:02:35;-4.00;99.90
17948;DHT22;9099;47.958;11.366;2023-02-28T03:05:08;-4.00;99.90
17948;DHT22;9099;47.958;11.366;2023-02-28T03:07:39;-4.00;99.90
17948;DHT22;9099;47.958;11.366;2023-02-28T03:10:31;-3.90;99.90
17948;DHT22;9099;47.958;11.366;2023-02-28T03:13:12;-4.00;99.90
17948;DHT22;9099;47.958;11.366;2023-02-28T03:15:50;-4.00;99.90
17948;DHT22;9099;47.958;11.366;2023-02-28T03:18:26;-4.00;99.90
17948;DHT22;9099;47.958;11.366;2023-02-28T03:21:06;-4.00;99.90
17948;DHT22;9099;47.958;11.366;2023-02-28T03:23:41;-4.00;99.90
17948;DHT22;9099;47.958;11.366;2023-02-28T03:26:16;-4.00;99.90
17948;DHT22;9099;47.958;11.366;2023-02-28T03:28:52;-4.00;99.90
17948;DHT22;9099;47.958;11.366;2023-02-28T03:31:26;-3.90;99.90
17948;DHT22;9099;47.958;11.366;2023-02-28T03:33:59;-3.90;99.90
17948;DHT22;9099;47.958;11.366;2023-02-28T03:36:30;-3.90;99.90
17948;DHT22;9099;47.958;11.366;2023-02-28T03:39:07;-3.90;99.90
17948;DHT22;9099;47.958;11.366;2023-02-28T03:41:38;-3.90;99.90
17948;DHT22;9099;47.958;11.366;2023-02-28T03:44:11;-3.90;99.90
17948;DHT22;9099;47.958;11.366;2023-02-28T03:46:46;-3.90;99.90
17948;DHT22;9099;47.958;11.366;2023-02-28T03:49:16;-3.80;99.90
17948;DHT22;9099;47.958;11.366;2023-02-28T03:51:46;-3.80;99.90
17948;DHT22;9099;47.958;11.366;2023-02-28T03:54:16;-3.80;99.90
17948;DHT22;9099;47.958;11.366;2023-02-28T03:56:47;-3.80;99.90
17948;DHT22;9099;47.958;11.366;2023-02-28T03:59:18;-3.80;99.90
17948;DHT22;9099;47.958;11.366;2023-02-28T04:01:48;-3.80;99.90
17948;DHT22;9099;47.958;11.366;2023-02-28T04:04:17;-3.80;99.90
17948;DHT22;9099;47.958;11.366;2023-02-28T04:06:45;-3.80;99.90
17948;DHT22;9099;47.958;11.366;2023-02-28T04:09:15;-3.80;99.90
17948;DHT22;9099;47.958;11.366;2023-02-28T04:11:44;-3.80;99.90
17948;DHT22;9099;47.958;11.366;2023-02-28T04:14:12;-3.80;99.90
17948;DHT22;9099;47.958;11.366;2023-02-28T04:16:40;-3.80;99.90
17948;DHT22;9099;47.958;11.366;2023-02-28T04:19:08;-3.80;99.90
17948;DHT22;9099;47.958;11.366;2023-02-28T04:21:37;-3.70;99.90
17948;DHT22;9099;47.958;11.366;2023-02-28T04:24:07;-3.80;99.90
17948;DHT22;9099;47.958;11.366;2023-02-28T04:26:35;-3.80;99.90
17948;DHT22;9099;47.958;11.366;2023-02-28T04:29:04;-3.80;99.90
17948;DHT22;9099;47.958;11.366;2023-02-28T04:31:31;-3.80;99.90
17948;DHT22;9099;47.958;11.366;2023-02-28T04:33:58;-3.80;99.90
17948;DHT22;9099;47.958;11.366;2023-02-28T04:36:26;-3.80;99.90
17948;DHT22;9099;47.958;11.366;2023-02-28T04:38:52;-3.80;99.90
17948;DHT22;9099;47.958;11.366;2023-02-28T04:41:21;-3.80;99.90
17948;DHT22;9099;47.958;11.366;2023-02-28T04:43:48;-3.80;99.90
17948;DHT22;9099;47.958;11.366;2023-02-28T04:46:15;-3.90;99.90
17948;DHT22;9099;47.958;11.366;2023-02-28T04:48:42;-3.90;99.90
17948;DHT22;9099;47.958;11.366;2023-02-28T04:51:11;-3.90;99.90
17948;DHT22;9099;47.958;11.366;2023-02-28T04:53:40;-3.90;99.90
17948;DHT22;9099;47.958;11.366;2023-02-28T04:56:09;-3.80;99.90
17948;DHT22;9099;47.958;11.366;2023-02-28T04:58:38;-3.80;99.90
17948;DHT22;9099;47.958;11.366;2023-02-28T05:01:15;-3.80;99.90
17948;DHT22;9099;47.958;11.366;2023-02-28T05:03:43;-3.70;99.90
17948;DHT22;9099;47.958;11.366;2023-02-28T05:06:11;-3.60;99.90
17948;DHT22;9099;47.958;11.366;2023-02-28T05:08:38;-3.60;99.90
17948;DHT22;9099;47.958;11.366;2023-02-28T05:11:07;-3.60;99.90
17948;DHT22;9099;47.958;11.366;2023-02-28T05:13:34;-3.50;99.90
17948;DHT22;9099;47.958;11.366;2023-02-28T05:16:02;-3.50;99.90
17948;DHT22;9099;47.958;11.366;2023-02-28T05:18:29;-3.50;99.90
17948;DHT22;9099;47.958;11.366;2023-02-28T05:20:56;-3.50;99.90
17948;DHT22;9099;47.958;11.366;2023-02-28T05:23:23;-3.40;99.90
17948;DHT22;9099;47.958;11.366;2023-02-28T05:25:50;-3.40;99.90
17948;DHT22;9099;47.958;11.366;2023-02-28T05:28:19;-3.40;99.90
17948;DHT22;9099;47.958;11.366;2023-02-28T05:30:46;-3.30;99.90
17948;DHT22;9099;47.958;11.366;2023-02-28T05:33:14;-3.30;99.90
17948;DHT22;9099;47.958;11.366;2023-02-28T05:35:42;-3.20;99.90
17948;DHT22;9099;47.958;11.366;2023-02-28T05:38:09;-3.20;99.90
17948;DHT22;9099;47.958;11.366;2023-02-28T05:40:38;-3.20;99.90
17948;DHT22;9099;47.958;11.366;2023-02-28T05:43:05;-3.20;99.90
17948;DHT22;9099;47.958;11.366;2023-02-28T05:45:31;-3.10;99.90
17948;DHT22;9099;47.958;11.366;2023-02-28T05:47:58;-3.10;99.90
17948;DHT22;9099;47.958;11.366;2023-02-28T05:50:26;-3.10;99.90
17948;DHT22;9099;47.958;11.366;2023-02-28T05:52:53;-3.10;99.90
17948;DHT22;9099;47.958;11.366;2023-02-28T05:55:20;-3.10;99.90
17948;DHT22;9099;47.958;11.366;2023-02-28T05:57:47;-3.20;99.90
17948;DHT22;9099;47.958;11.366;2023-02-28T06:00:14;-3.20;99.90
17948;DHT22;9099;47.958;11.366;2023-02-28T06:02:43;-3.20;99.90
17948;DHT22;9099;47.958;11.366;2023-02-28T06:05:13;-3.10;99.90
17948;DHT22;9099;47.958;11.366;2023-02-28T06:07:42;-3.10;99.90
17948;DHT22;9099;47.958;11.366;2023-02-28T06:10:10;-3.10;99.90
17948;DHT22;9099;47.958;11.366;2023-02-28T06:12:37;-3.00;99.90
17948;DHT22;9099;47.958;11.366;2023-02-28T06:15:05;-3.00;99.90
17948;DHT22;9099;47.958;11.366;2023-02-28T06:17:32;-2.90;99.90
17948;DHT22;9099;47.958;11.366;2023-02-28T06:19:59;-2.90;99.90
17948;DHT22;9099;47.958;11.366;2023-02-28T06:22:25;-2.90;99.90
17948;DHT22;9099;47.958;11.366;2023-02-28T06:24:54;-2.90;99.90
17948;DHT22;9099;47.958;11.366;2023-02-28T06:27:22;-2.90;99.90
17948;DHT22;9099;47.958;11.366;2023-02-28T06:29:52;-2.80;99.90
17948;DHT22;9099;47.958;11.366;2023-02-28T06:32:19;-2.80;99.90
17948;DHT22;9099;47.958;11.366;2023-02-28T06:34:46;-2.80;99.90
17948;DHT22;9099;47.958;11.366;2023-02-28T06:37:13;-2.80;99.90
17948;DHT22;9099;47.958;11.366;2023-02-28T06:39:40;-2.70;99.90
17948;DHT22;9099;47.958;11.366;2023-02-28T06:42:08;-2.80;99.90
17948;DHT22;9099;47.958;11.366;2023-02-28T06:44:35;-2.80;99.90
17948;DHT22;9099;47.958;11.366;2023-02-28T06:47:03;-2.70;99.90
17948;DHT22;9099;47.958;11.366;2023-02-28T06:49:30;-2.70;99.90
17948;DHT22;9099;47.958;11.366;2023-02-28T06:51:57;-2.70;99.90
17948;DHT22;9099;47.958;11.366;2023-02-28T06:54:24;-2.70;99.90
17948;DHT22;9099;47.958;11.366;2023-02-28T06:56:51;-2.70;99.90
17948;DHT22;9099;47.958;11.366;2023-02-28T06:59:21;-2.60;99.90
17948;DHT22;9099;47.958;11.366;2023-02-28T07:01:47;-2.60;99.90
17948;DHT22;9099;47.958;11.366;2023-02-28T07:04:14;-2.60;99.90
17948;DHT22;9099;47.958;11.366;2023-02-28T07:06:41;-2.60;99.90
17948;DHT22;9099;47.958;11.366;2023-02-28T07:09:08;-2.50;99.90
17948;DHT22;9099;47.958;11.366;2023-02-28T07:11:36;-2.50;99.90
17948;DHT22;9099;47.958;11.366;2023-02-28T07:14:03;-2.50;99.90
17948;DHT22;9099;47.958;11.366;2023-02-28T07:16:31;-2.50;99.90
17948;DHT22;9099;47.958;11.366;2023-02-28T07:18:58;-2.50;99.90
17948;DHT22;9099;47.958;11.366;2023-02-28T07:21:25;-2.50;99.90
17948;DHT22;9099;47.958;11.366;2023-02-28T07:23:51;-2.40;99.90
17948;DHT22;9099;47.958;11.366;2023-02-28T07:26:20;-2.30;99.90
17948;DHT22;9099;47.958;11.366;2023-02-28T07:28:48;-2.40;99.90
17948;DHT22;9099;47.958;11.366;2023-02-28T07:31:15;-2.40;99.90
17948;DHT22;9099;47.958;11.366;2023-02-28T07:33:44;-2.40;99.90
17948;DHT22;9099;47.958;11.366;2023-02-28T07:36:13;-2.40;99.90
17948;DHT22;9099;47.958;11.366;2023-02-28T07:38:41;-2.40;99.90
17948;DHT22;9099;47.958;11.366;2023-02-28T07:41:08;-2.30;99.90
17948;DHT22;9099;47.958;11.366;2023-02-28T07:43:35;-2.20;99.90
17948;DHT22;9099;47.958;11.366;2023-02-28T07:46:03;-2.10;99.90
17948;DHT22;9099;47.958;11.366;2023-02-28T07:48:30;-2.10;99.90
17948;DHT22;9099;47.958;11.366;2023-02-28T07:50:58;-2.00;99.90
17948;DHT22;9099;47.958;11.366;2023-02-28T07:53:26;-2.10;99.90
17948;DHT22;9099;47.958;11.366;2023-02-28T07:55:55;-2.00;99.90
17948;DHT22;9099;47.958;11.366;2023-02-28T07:58:22;-2.00;99.90
17948;DHT22;9099;47.958;11.366;2023-02-28T08:00:49;-2.00;99.90
17948;DHT22;9099;47.958;11.366;2023-02-28T08:03:17;-2.00;99.90
17948;DHT22;9099;47.958;11.366;2023-02-28T08:05:44;-2.00;99.90
17948;DHT22;9099;47.958;11.366;2023-02-28T08:08:12;-1.90;99.90
17948;DHT22;9099;47.958;11.366;2023-02-28T08:10:39;-1.90;99.90
17948;DHT22;9099;47.958;11.366;2023-02-28T08:13:06;-1.90;99.90
17948;DHT22;9099;47.958;11.366;2023-02-28T08:15:33;-1.90;99.90
17948;DHT22;9099;47.958;11.366;2023-02-28T08:18:00;-1.80;99.90
17948;DHT22;9099;47.958;11.366;2023-02-28T08:20:27;-1.70;99.90
17948;DHT22;9099;47.958;11.366;2023-02-28T08:22:54;-1.70;99.90
17948;DHT22;9099;47.958;11.366;2023-02-28T08:25:22;-1.70;99.90
17948;DHT22;9099;47.958;11.366;2023-02-28T08:27:51;-1.70;99.90
17948;DHT22;9099;47.958;11.366;2023-02-28T08:30:18;-1.60;99.90
17948;DHT22;9099;47.958;11.366;2023-02-28T08:32:45;-1.70;99.90
17948;DHT22;9099;47.958;11.366;2023-02-28T08:35:12;-1.60;99.90
17948;DHT22;9099;47.958;11.366;2023-02-28T08:37:38;-1.60;99.90
17948;DHT22;9099;47.958;11.366;2023-02-28T08:40:07;-1.60;99.90
17948;DHT22;9099;47.958;11.366;2023-02-28T08:42:35;-1.60;99.90
17948;DHT22;9099;47.958;11.366;2023-02-28T08:45:03;-1.60;99.90
17948;DHT22;9099;47.958;11.366;2023-02-28T08:47:30;-1.50;99.90
17948;DHT22;9099;47.958;11.366;2023-02-28T08:49:56;-1.50;99.90
17948;DHT22;9099;47.958;11.366;2023-02-28T08:52:23;-1.40;99.90
17948;DHT22;9099;47.958;11.366;2023-02-28T08:54:50;-1.30;99.90
17948;DHT22;9099;47.958;11.366;2023-02-28T08:57:17;-1.50;99.90
17948;DHT22;9099;47.958;11.366;2023-02-28T08:59:45;-1.40;99.90
17948;DHT22;9099;47.958;11.366;2023-02-28T09:02:13;-1.40;99.90
17948;DHT22;9099;47.958;11.366;2023-02-28T09:04:40;-1.30;99.90
17948;DHT22;9099;47.958;11.366;2023-02-28T09:07:07;-1.30;99.90
17948;DHT22;9099;47.958;11.366;2023-02-28T09:09:34;-1.30;99.90
17948;DHT22;9099;47.958;11.366;2023-02-28T09:12:01;-1.20;99.90
17948;DHT22;9099;47.958;11.366;2023-02-28T09:14:28;-1.20;99.90
17948;DHT22;9099;47.958;11.366;2023-02-28T09:16:56;-1.10;99.90
17948;DHT22;9099;47.958;11.366;2023-02-28T09:19:24;-1.30;99.90
17948;DHT22;9099;47.958;11.366;2023-02-28T09:21:51;-1.40;99.90
17948;DHT22;9099;47.958;11.366;2023-02-28T09:24:18;-1.50;99.90
17948;DHT22;9099;47.958;11.366;2023-02-28T09:26:46;-1.50;99.90
17948;DHT22;9099;47.958;11.366;2023-02-28T09:29:13;-1.40;99.90
17948;DHT22;9099;47.958;11.366;2023-02-28T09:31:40;-1.40;99.90
17948;DHT22;9099;47.958;11.366;2023-02-28T09:34:08;-1.30;99.90
17948;DHT22;9099;47.958;11.366;2023-02-28T09:36:35;-1.20;99.90
17948;DHT22;9099;47.958;11.366;2023-02-28T09:39:03;-1.40;99.90
17948;DHT22;9099;47.958;11.366;2023-02-28T09:41:37;-1.30;99.90
17948;DHT22;9099;47.958;11.366;2023-02-28T09:44:16;-1.20;99.90
17948;DHT22;9099;47.958;11.366;2023-02-28T09:46:48;-1.20;99.90
17948;DHT22;9099;47.958;11.366;2023-02-28T09:49:19;-1.30;99.90
17948;DHT22;9099;47.958;11.366;2023-02-28T09:51:53;-1.30;99.90
17948;DHT22;9099;47.958;11.366;2023-02-28T09:54:23;-1.30;99.90
17948;DHT22;9099;47.958;11.366;2023-02-28T09:56:53;-1.20;99.90
17948;DHT22;9099;47.958;11.366;2023-02-28T10:05:29;-0.80;99.90
17948;DHT22;9099;47.958;11.366;2023-02-28T10:08:03;-0.80;99.90
17948;DHT22;9099;47.958;11.366;2023-02-28T10:10:36;-0.60;99.90
17948;DHT22;9099;47.958;11.366;2023-02-28T10:13:11;-0.50;99.90
17948;DHT22;9099;47.958;11.366;2023-02-28T10:15:39;-0.50;99.90
17948;DHT22;9099;47.958;11.366;2023-02-28T10:18:10;-0.60;99.90
17948;DHT22;9099;47.958;11.366;2023-02-28T10:20:41;-0.60;99.90
17948;DHT22;9099;47.958;11.366;2023-02-28T10:23:13;-0.70;99.90
17948;DHT22;9099;47.958;11.366;2023-02-28T10:25:43;-0.80;99.90
17948;DHT22;9099;47.958;11.366;2023-02-28T10:28:15;-0.90;99.90
17948;DHT22;9099;47.958;11.366;2023-02-28T10:30:46;-0.90;99.90
17948;DHT22;9099;47.958;11.366;2023-02-28T10:33:19;-0.80;99.90
17948;DHT22;9099;47.958;11.366;2023-02-28T10:35:49;-0.70;99.90
17948;DHT22;9099;47.958;11.366;2023-02-28T10:38:18;-0.70;99.90
17948;DHT22;9099;47.958;11.366;2023-02-28T10:40:45;-0.50;99.90
17948;DHT22;9099;47.958;11.366;2023-02-28T10:43:21;-0.60;99.90
17948;DHT22;9099;47.958;11.366;2023-02-28T10:45:59;-0.60;99.90
17948;DHT22;9099;47.958;11.366;2023-02-28T10:48:37;-0.60;99.90
17948;DHT22;9099;47.958;11.366;2023-02-28T10:51:07;-0.70;99.90
17948;DHT22;9099;47.958;11.366;2023-02-28T10:53:38;-0.60;99.90
17948;DHT22;9099;47.958;11.366;2023-02-28T10:56:16;-0.60;99.90
17948;DHT22;9099;47.958;11.366;2023-02-28T10:58:50;-0.50;99.90
17948;DHT22;9099;47.958;11.366;2023-02-28T11:01:19;-0.50;99.90
17948;DHT22;9099;47.958;11.366;2023-02-28T11:03:46;-0.40;99.90
17948;DHT22;9099;47.958;11.366;2023-02-28T11:06:17;-0.50;99.90
17948;DHT22;9099;47.958;11.366;2023-02-28T11:08:46;-0.50;99.90
17948;DHT22;9099;47.958;11.366;2023-02-28T11:11:14;-0.50;99.90
17948;DHT22;9099;47.958;11.366;2023-02-28T11:13:44;-0.60;99.90
17948;DHT22;9099;47.958;11.366;2023-02-28T11:16:13;-0.60;99.90
17948;DHT22;9099;47.958;11.366;2023-02-28T11:18:43;-0.50;99.90
17948;DHT22;9099;47.958;11.366;2023-02-28T11:21:20;-0.50;99.90
17948;DHT22;9099;47.958;11.366;2023-02-28T11:23:50;-0.40;99.90
17948;DHT22;9099;47.958;11.366;2023-02-28T11:26:38;-0.20;99.90
17948;DHT22;9099;47.958;11.366;2023-02-28T11:29:21;-0.10;99.90
17948;DHT22;9099;47.958;11.366;2023-02-28T11:34:44;0.10;99.90
17948;DHT22;9099;47.958;11.366;2023-02-28T11:37:14;0.20;99.90
17948;DHT22;9099;47.958;11.366;2023-02-28T11:39:42;0.30;99.90
17948;DHT22;9099;47.958;11.366;2023-02-28T11:42:23;0.30;99.90
17948;DHT22;9099;47.958;11.366;2023-02-28T11:45:04;0.30;99.90
17948;DHT22;9099;47.958;11.366;2023-02-28T11:47:38;0.20;99.90
17948;DHT22;9099;47.958;11.366;2023-02-28T11:50:20;0.10;99.90
17948;DHT22;9099;47.958;11.366;2023-02-28T11:52:53;0.30;99.90
17948;DHT22;9099;47.958;11.366;2023-02-28T11:55:25;0.30;99.90
17948;DHT22;9099;47.958;11.366;2023-02-28T11:58:03;0.50;99.90
17948;DHT22;9099;47.958;11.366;2023-02-28T12:00:43;0.50;99.90
17948;DHT22;9099;47.958;11.366;2023-02-28T12:03:21;0.50;99.90
17948;DHT22;9099;47.958;11.366;2023-02-28T12:05:57;0.50;99.90
17948;DHT22;9099;47.958;11.366;2023-02-28T12:08:43;0.40;99.90
17948;DHT22;9099;47.958;11.366;2023-02-28T12:11:19;0.50;99.90
17948;DHT22;9099;47.958;11.366;2023-02-28T12:13:57;0.50;99.90
17948;DHT22;9099;47.958;11.366;2023-02-28T12:16:47;0.70;99.90
17948;DHT22;9099;47.958;11.366;2023-02-28T12:19:21;0.70;99.90
17948;DHT22;9099;47.958;11.366;2023-02-28T12:24:53;1.20;99.90
17948;DHT22;9099;47.958;11.366;2023-02-28T12:27:24;1.50;99.90
17948;DHT22;9099;47.958;11.366;2023-02-28T12:29:55;1.80;99.90
17948;DHT22;9099;47.958;11.366;2023-02-28T12:32:27;2.20;99.90
17948;DHT22;9099;47.958;11.366;2023-02-28T12:35:00;2.50;99.90
17948;DHT22;9099;47.958;11.366;2023-02-28T12:37:33;2.40;99.90
17948;DHT22;9099;47.958;11.366;2023-02-28T12:40:06;2.40;99.90
17948;DHT22;9099;47.958;11.366;2023-02-28T12:42:40;2.30;99.90
17948;DHT22;9099;47.958;11.366;2023-02-28T12:45:11;2.20;99.90
17948;DHT22;9099;47.958;11.366;2023-02-28T12:47:42;2.20;99.90
17948;DHT22;9099;47.958;11.366;2023-02-28T12:50:12;2.20;99.90
17948;DHT22;9099;47.958;11.366;2023-02-28T12:52:44;2.20;99.90
17948;DHT22;9099;47.958;11.366;2023-02-28T12:55:20;2.20;99.90
17948;DHT22;9099;47.958;11.366;2023-02-28T12:57:55;2.60;99.90
17948;DHT22;9099;47.958;11.366;2023-02-28T13:00:25;2.80;99.90
17948;DHT22;9099;47.958;11.366;2023-02-28T13:03:24;2.70;99.90
17948;DHT22;9099;47.958;11.366;2023-02-28T13:06:20;2.70;99.90
17948;DHT22;9099;47.958;11.366;2023-02-28T13:09:04;2.80;99.90
17948;DHT22;9099;47.958;11.366;2023-02-28T13:11:39;2.80;99.90
17948;DHT22;9099;47.958;11.366;2023-02-28T13:14:24;2.90;99.90
17948;DHT22;9099;47.958;11.366;2023-02-28T13:16:57;2.80;99.90
17948;DHT22;9099;47.958;11.366;2023-02-28T13:19:27;2.60;99.90
17948;DHT22;9099;47.958;11.366;2023-02-28T13:21:57;2.60;99.90
17948;DHT22;9099;47.958;11.366;2023-02-28T13:24:39;2.40;99.90
17948;DHT22;9099;47.958;11.366;2023-02-28T13:27:36;2.30;99.90
17948;DHT22;9099;47.958;11.366;2023-02-28T13:33:22;2.20;99.90
17948;DHT22;9099;47.958;11.366;2023-02-28T13:36:07;2.40;99.90
17948;DHT22;9099;47.958;11.366;2023-02-28T13:38:38;2.40;99.90
17948;DHT22;9099;47.958;11.366;2023-02-28T13:41:41;2.40;99.90
17948;DHT22;9099;47.958;11.366;2023-02-28T13:44:10;2.50;99.90
17948;DHT22;9099;47.958;11.366;2023-02-28T13:49:38;2.60;99.90
17948;DHT22;9099;47.958;11.366;2023-02-28T13:52:12;2.50;99.90
17948;DHT22;9099;47.958;11.366;2023-02-28T13:55:12;2.50;99.90
17948;DHT22;9099;47.958;11.366;2023-02-28T13:57:53;2.40;99.90
17948;DHT22;9099;47.958;11.366;2023-02-28T14:03:28;2.30;99.90
17948;DHT22;9099;47.958;11.366;2023-02-28T14:06:15;2.20;99.90
17948;DHT22;9099;47.958;11.366;2023-02-28T14:08:52;2.10;99.90
17948;DHT22;9099;47.958;11.366;2023-02-28T14:11:29;2.10;99.90
17948;DHT22;9099;47.958;11.366;2023-02-28T14:13:57;2.30;99.90
17948;DHT22;9099;47.958;11.366;2023-02-28T14:16:36;2.30;99.90
17948;DHT22;9099;47.958;11.366;2023-02-28T14:19:11;2.50;99.90
17948;DHT22;9099;47.958;11.366;2023-02-28T14:21:46;2.60;99.90
17948;DHT22;9099;47.958;11.366;2023-02-28T14:24:49;2.70;99.90
17948;DHT22;9099;47.958;11.366;2023-02-28T14:27:37;2.80;99.90
17948;DHT22;9099;47.958;11.366;2023-02-28T14:30:37;2.80;99.90
17948;DHT22;9099;47.958;11.366;2023-02-28T14:33:22;2.80;99.90
17948;DHT22;9099;47.958;11.366;2023-02-28T14:36:07;2.80;99.90
17948;DHT22;9099;47.958;11.366;2023-02-28T14:38:40;2.80;99.90
17948;DHT22;9099;47.958;11.366;2023-02-28T14:41:16;2.70;99.90
17948;DHT22;9099;47.958;11.366;2023-02-28T14:43:53;2.70;99.90
17948;DHT22;9099;47.958;11.366;2023-02-28T14:46:20;2.70;99.90
17948;DHT22;9099;47.958;11.366;2023-02-28T14:48:50;2.70;99.90
17948;DHT22;9099;47.958;11.366;2023-02-28T14:51:21;2.80;99.90
17948;DHT22;9099;47.958;11.366;2023-02-28T14:53:51;2.70;99.90
17948;DHT22;9099;47.958;11.366;2023-02-28T14:56:23;2.70;99.90
17948;DHT22;9099;47.958;11.366;2023-02-28T14:58:55;2.60;99.90
17948;DHT22;9099;47.958;11.366;2023-02-28T15:01:23;2.50;99.90
17948;DHT22;9099;47.958;11.366;2023-02-28T15:03:59;2.50;99.90
17948;DHT22;9099;47.958;11.366;2023-02-28T15:06:27;2.60;99.90
17948;DHT22;9099;47.958;11.366;2023-02-28T15:09:15;2.60;99.90
17948;DHT22;9099;47.958;11.366;2023-02-28T15:11:47;2.60;99.90
17948;DHT22;9099;47.958;11.366;2023-02-28T15:14:18;2.50;99.90
17948;DHT22;9099;47.958;11.366;2023-02-28T15:16:48;2.50;99.90
17948;DHT22;9099;47.958;11.366;2023-02-28T15:19:21;2.50;99.90
17948;DHT22;9099;47.958;11.366;2023-02-28T15:21:52;2.50;99.90
17948;DHT22;9099;47.958;11.366;2023-02-28T15:24:25;2.60;99.90
17948;DHT22;9099;47.958;11.366;2023-02-28T15:26:57;2.50;99.90
17948;DHT22;9099;47.958;11.366;2023-02-28T15:29:26;2.40;99.90
17948;DHT22;9099;47.958;11.366;2023-02-28T15:31:57;2.30;99.90
17948;DHT22;9099;47.958;11.366;2023-02-28T15:34:34;2.30;99.90
17948;DHT22;9099;47.958;11.366;2023-02-28T15:37:01;2.30;99.90
17948;DHT22;9099;47.958;11.366;2023-02-28T15:39:29;2.30;99.90
17948;DHT22;9099;47.958;11.366;2023-02-28T15:42:10;2.40;99.90
17948;DHT22;9099;47.958;11.366;2023-02-28T15:44:37;2.40;99.90
17948;DHT22;9099;47.958;11.366;2023-02-28T15:47:06;2.40;99.90
17948;DHT22;9099;47.958;11.366;2023-02-28T15:49:45;2.50;99.90
17948;DHT22;9099;47.958;11.366;2023-02-28T15:52:17;2.50;99.90
17948;DHT22;9099;47.958;11.366;2023-02-28T15:54:45;2.60;99.90
17948;DHT22;9099;47.958;11.366;2023-02-28T15:57:15;2.50;99.90
17948;DHT22;9099;47.958;11.366;2023-02-28T15:59:50;2.40;99.90
17948;DHT22;9099;47.958;11.366;2023-02-28T16:02:20;2.30;99.90
17948;DHT22;9099;47.958;11.366;2023-02-28T16:07:43;2.20;99.90
17948;DHT22;9099;47.958;11.366;2023-02-28T16:10:12;2.10;99.90
17948;DHT22;9099;47.958;11.366;2023-02-28T16:12:40;1.90;99.90
17948;DHT22;9099;47.958;11.366;2023-02-28T16:15:15;1.90;99.90
17948;DHT22;9099;47.958;11.366;2023-02-28T16:17:43;1.80;99.90
17948;DHT22;9099;47.958;11.366;2023-02-28T16:20:14;1.80;99.90
17948;DHT22;9099;47.958;11.366;2023-02-28T16:22:42;1.90;99.90
17948;DHT22;9099;47.958;11.366;2023-02-28T16:25:11;2.00;99.90
17948;DHT22;9099;47.958;11.366;2023-02-28T16:27:38;2.00;99.90
17948;DHT22;9099;47.958;11.366;2023-02-28T16:30:07;2.10;99.90